sensor_id;sensor_type;location;lat;lon;timestamp;pressure;altitude;pressure_sealevel;temperature;humidity
46476;BME280;53376;51.114;14.738;2022-10-26T00:01:44;98718.94;;;14.36;61.56
46476;BME280;53376;51.114;14.738;2022-10-26T00:04:23;98720.97;;;14.32;61.58
46476;BME280;53376;51.114;14.738;2022-10-26T00:06:50;98716.56;;;14.31;61.70
46476;BME280;53376;51.114;14.738;2022-10-26T00:09:24;98711.22;;;14.31;61.61
46476;BME280;53376;51.114;14.738;2022-10-26T00:12:06;98718.53;;;14.29;61.69
46476;BME280;53376;51.114;14.738;2022-10-26T00:14:32;98711.47;;;14.28;61.68
46476;BME280;53376;51.114;14.738;2022-10-26T00:17:14;98711.34;;;14.30;61.74
46476;BME280;53376;51.114;14.738;2022-10-26T00:29:55;98717.53;;;14.30;61.73
46476;BME280;53376;51.114;14.738;2022-10-26T00:32:31;98707.81;;;14.29;61.72
46476;BME280;53376;51.114;14.738;2022-10-26T00:35:31;98706.00;;;14.30;61.42
46476;BME280;53376;51.114;14.738;2022-10-26T00:38:17;98706.97;;;14.29;61.69
46476;BME280;53376;51.114;14.738;2022-10-26T00:40:57;98697.34;;;14.26;61.27
46476;BME280;53376;51.114;14.738;2022-10-26T00:56:59;98694.56;;;14.15;61.77
46476;BME280;53376;51.114;14.738;2022-10-26T00:59:39;98701.84;;;14.13;61.91
46476;BME280;53376;51.114;14.738;2022-10-26T01:02:06;98707.41;;;14.10;62.08
46476;BME280;53376;51.114;14.738;2022-10-26T01:04:47;98705.69;;;14.09;61.97
46476;BME280;53376;51.114;14.738;2022-10-26T01:07:13;98692.34;;;14.09;62.11
46476;BME280;53376;51.114;14.738;2022-10-26T01:24:21;98699.06;;;14.14;61.93
46476;BME280;53376;51.114;14.738;2022-10-26T01:27:27;98699.06;;;14.14;61.95
46476;BME280;53376;51.114;14.738;2022-10-26T01:30:30;98702.72;;;14.13;61.88
46476;BME280;53376;51.114;14.738;2022-10-26T01:33:20;98702.06;;;14.10;61.77
46476;BME280;53376;51.114;14.738;2022-10-26T01:36:12;98694.38;;;14.05;61.88
46476;BME280;53376;51.114;14.738;2022-10-26T01:49:16;98687.84;;;13.96;62.16
46476;BME280;53376;51.114;14.738;2022-10-26T01:51:59;98683.28;;;13.98;62.33
46476;BME280;53376;51.114;14.738;2022-10-26T01:54:39;98678.78;;;13.99;62.13
46476;BME280;53376;51.114;14.738;2022-10-26T01:57:09;98677.94;;;13.98;62.17
46476;BME280;53376;51.114;14.738;2022-10-26T02:00:03;98682.41;;;13.98;62.19
46476;BME280;53376;51.114;14.738;2022-10-26T02:16:24;98674.41;;;13.85;62.52
46476;BME280;53376;51.114;14.738;2022-10-26T02:19:32;98677.91;;;13.85;62.38
46476;BME280;53376;51.114;14.738;2022-10-26T02:22:14;98680.69;;;13.84;62.19
46476;BME280;53376;51.114;14.738;2022-10-26T02:24:59;98677.28;;;13.82;62.37
46476;BME280;53376;51.114;14.738;2022-10-26T02:27:44;98674.59;;;13.82;62.47
46476;BME280;53376;51.114;14.738;2022-10-26T02:41:24;98683.69;;;13.79;62.76
46476;BME280;53376;51.114;14.738;2022-10-26T02:44:11;98689.03;;;13.79;62.45
46476;BME280;53376;51.114;14.738;2022-10-26T02:46:49;98686.47;;;13.78;62.46
46476;BME280;53376;51.114;14.738;2022-10-26T02:49:30;98692.88;;;13.75;62.53
46476;BME280;53376;51.114;14.738;2022-10-26T02:52:03;98693.72;;;13.76;62.51
46476;BME280;53376;51.114;14.738;2022-10-26T02:54:54;98693.53;;;13.79;62.55
46476;BME280;53376;51.114;14.738;2022-10-26T02:57:35;98698.00;;;13.78;62.45
46476;BME280;53376;51.114;14.738;2022-10-26T03:10:44;98695.66;;;13.74;62.93
46476;BME280;53376;51.114;14.738;2022-10-26T03:13:26;98695.75;;;13.72;62.37
46476;BME280;53376;51.114;14.738;2022-10-26T03:15:54;98700.34;;;13.70;62.50
46476;BME280;53376;51.114;14.738;2022-10-26T03:18:35;98700.34;;;13.70;62.49
46476;BME280;53376;51.114;14.738;2022-10-26T03:21:01;98699.50;;;13.69;62.56
46476;BME280;53376;51.114;14.738;2022-10-26T03:37:29;98696.81;;;13.69;62.42
46476;BME280;53376;51.114;14.738;2022-10-26T03:39:56;98695.88;;;13.70;62.50
46476;BME280;53376;51.114;14.738;2022-10-26T03:42:34;98696.81;;;13.69;62.49
46476;BME280;53376;51.114;14.738;2022-10-26T03:45:15;98697.69;;;13.70;62.51
46476;BME280;53376;51.114;14.738;2022-10-26T03:47:43;98703.88;;;13.70;62.65
46476;BME280;53376;51.114;14.738;2022-10-26T03:50:40;98694.16;;;13.69;62.63
46476;BME280;53376;51.114;14.738;2022-10-26T04:03:28;98690.75;;;13.67;62.77
46476;BME280;53376;51.114;14.738;2022-10-26T04:06:11;98692.66;;;13.65;62.71
46476;BME280;53376;51.114;14.738;2022-10-26T04:08:53;98699.91;;;13.63;62.74
46476;BME280;53376;51.114;14.738;2022-10-26T04:11:20;98691.16;;;13.61;62.71
46476;BME280;53376;51.114;14.738;2022-10-26T04:14:00;98683.25;;;13.60;62.70
46476;BME280;53376;51.114;14.738;2022-10-26T04:16:26;98685.91;;;13.60;62.83
46476;BME280;53376;51.114;14.738;2022-10-26T04:29:38;98684.13;;;13.60;62.68
46476;BME280;53376;51.114;14.738;2022-10-26T04:32:17;98692.13;;;13.60;62.81
46476;BME280;53376;51.114;14.738;2022-10-26T04:34:44;98684.31;;;13.57;62.89
46476;BME280;53376;51.114;14.738;2022-10-26T04:37:17;98690.59;;;13.56;62.90
46476;BME280;53376;51.114;14.738;2022-10-26T04:39:57;98694.25;;;13.55;63.05
46476;BME280;53376;51.114;14.738;2022-10-26T04:42:24;98692.63;;;13.52;63.03
46476;BME280;53376;51.114;14.738;2022-10-26T04:55:14;98697.97;;;13.40;63.38
46476;BME280;53376;51.114;14.738;2022-10-26T04:57:54;98694.44;;;13.39;63.54
46476;BME280;53376;51.114;14.738;2022-10-26T05:00:35;98691.78;;;13.39;63.37
46476;BME280;53376;51.114;14.738;2022-10-26T05:03:03;98688.41;;;13.35;63.61
46476;BME280;53376;51.114;14.738;2022-10-26T05:05:43;98685.94;;;13.32;63.83
46476;BME280;53376;51.114;14.738;2022-10-26T05:08:10;98683.16;;;13.34;63.67
46476;BME280;53376;51.114;14.738;2022-10-26T05:10:49;98687.66;;;13.33;63.79
46476;BME280;53376;51.114;14.738;2022-10-26T05:23:58;98677.63;;;13.37;63.72
46476;BME280;53376;51.114;14.738;2022-10-26T05:26:46;98690.91;;;13.38;63.91
46476;BME280;53376;51.114;14.738;2022-10-26T05:29:13;98680.31;;;13.37;63.74
46476;BME280;53376;51.114;14.738;2022-10-26T05:31:52;98678.50;;;13.37;63.70
46476;BME280;53376;51.114;14.738;2022-10-26T05:34:19;98685.75;;;13.35;63.61
46476;BME280;53376;51.114;14.738;2022-10-26T05:36:52;98688.41;;;13.35;63.85
46476;BME280;53376;51.114;14.738;2022-10-26T05:50:05;98689.38;;;13.34;64.03
46476;BME280;53376;51.114;14.738;2022-10-26T05:52:47;98702.84;;;13.33;63.95
46476;BME280;53376;51.114;14.738;2022-10-26T05:55:16;98701.13;;;13.32;63.89
46476;BME280;53376;51.114;14.738;2022-10-26T05:57:57;98711.78;;;13.32;63.89
46476;BME280;53376;51.114;14.738;2022-10-26T06:00:26;98706.47;;;13.32;63.99
46476;BME280;53376;51.114;14.738;2022-10-26T06:17:31;98727.34;;;13.25;64.28
46476;BME280;53376;51.114;14.738;2022-10-26T06:20:30;98723.00;;;13.24;64.42
46476;BME280;53376;51.114;14.738;2022-10-26T06:23:35;98728.50;;;13.21;64.45
46476;BME280;53376;51.114;14.738;2022-10-26T06:26:26;98733.09;;;13.19;64.58
46476;BME280;53376;51.114;14.738;2022-10-26T06:29:35;98735.75;;;13.19;64.84
46476;BME280;53376;51.114;14.738;2022-10-26T06:32:16;98733.09;;;13.19;64.92
46476;BME280;53376;51.114;14.738;2022-10-26T06:42:04;98736.63;;;13.19;64.89
46476;BME280;53376;51.114;14.738;2022-10-26T06:44:45;98735.69;;;13.20;65.14
46476;BME280;53376;51.114;14.738;2022-10-26T06:47:36;98732.03;;;13.21;65.17
46476;BME280;53376;51.114;14.738;2022-10-26T06:50:31;98738.34;;;13.20;65.13
46476;BME280;53376;51.114;14.738;2022-10-26T06:53:22;98733.09;;;13.19;65.39
46476;BME280;53376;51.114;14.738;2022-10-26T06:55:59;98733.09;;;13.19;65.36
46476;BME280;53376;51.114;14.738;2022-10-26T06:58:42;98738.41;;;13.19;65.61
46476;BME280;53376;51.114;14.738;2022-10-26T07:11:31;98733.66;;;13.24;65.47
46476;BME280;53376;51.114;14.738;2022-10-26T07:13:57;98745.06;;;13.26;65.51
46476;BME280;53376;51.114;14.738;2022-10-26T07:16:30;98746.78;;;13.27;65.37
46476;BME280;53376;51.114;14.738;2022-10-26T07:19:10;98749.47;;;13.27;65.73
46476;BME280;53376;51.114;14.738;2022-10-26T07:21:37;98751.19;;;13.28;65.77
46476;BME280;53376;51.114;14.738;2022-10-26T07:37:55;98752.19;;;13.40;66.48
46476;BME280;53376;51.114;14.738;2022-10-26T07:40:36;98750.16;;;13.44;66.29
46476;BME280;53376;51.114;14.738;2022-10-26T07:43:03;98749.22;;;13.45;66.22
46476;BME280;53376;51.114;14.738;2022-10-26T07:45:43;98750.94;;;13.46;66.35
46476;BME280;53376;51.114;14.738;2022-10-26T07:48:09;98750.81;;;13.47;66.56
46476;BME280;53376;51.114;14.738;2022-10-26T07:50:42;98757.03;;;13.48;66.67
46476;BME280;53376;51.114;14.738;2022-10-26T08:03:54;98759.06;;;13.57;66.98
46476;BME280;53376;51.114;14.738;2022-10-26T08:06:35;98762.63;;;13.58;66.81
46476;BME280;53376;51.114;14.738;2022-10-26T08:09:01;98769.56;;;13.60;66.91
46476;BME280;53376;51.114;14.738;2022-10-26T08:11:41;98765.94;;;13.61;66.82
46476;BME280;53376;51.114;14.738;2022-10-26T08:14:10;98766.66;;;13.63;67.00
46476;BME280;53376;51.114;14.738;2022-10-26T08:16:49;98763.81;;;13.66;66.92
46476;BME280;53376;51.114;14.738;2022-10-26T08:29:32;98782.81;;;13.75;67.02
46476;BME280;53376;51.114;14.738;2022-10-26T08:32:11;98781.88;;;13.76;67.17
46476;BME280;53376;51.114;14.738;2022-10-26T08:34:52;98781.66;;;13.79;67.18
46476;BME280;53376;51.114;14.738;2022-10-26T08:37:19;98782.41;;;13.81;67.29
46476;BME280;53376;51.114;14.738;2022-10-26T08:39:59;98782.41;;;13.81;67.48
46476;BME280;53376;51.114;14.738;2022-10-26T08:42:41;98786.69;;;13.83;67.35
46476;BME280;53376;51.114;14.738;2022-10-26T08:55:59;98795.91;;;13.92;67.51
46476;BME280;53376;51.114;14.738;2022-10-26T08:58:47;98790.34;;;13.95;67.75
46476;BME280;53376;51.114;14.738;2022-10-26T09:01:22;98784.81;;;13.98;68.15
46476;BME280;53376;51.114;14.738;2022-10-26T09:04:05;98790.16;;;13.98;67.93
46476;BME280;53376;51.114;14.738;2022-10-26T09:06:51;98789.09;;;14.01;67.80
46476;BME280;53376;51.114;14.738;2022-10-26T09:09:46;98792.41;;;14.05;68.05
46476;BME280;53376;51.114;14.738;2022-10-26T09:12:40;98800.06;;;14.09;68.17
46476;BME280;53376;51.114;14.738;2022-10-26T09:22:47;98805.09;;;14.27;68.05
46476;BME280;53376;51.114;14.738;2022-10-26T09:25:38;98801.03;;;14.34;68.26
46476;BME280;53376;51.114;14.738;2022-10-26T09:28:21;98801.69;;;14.38;67.88
46476;BME280;53376;51.114;14.738;2022-10-26T09:30:48;98801.56;;;14.39;67.75
46476;BME280;53376;51.114;14.738;2022-10-26T09:33:32;98803.94;;;14.44;67.78
46476;BME280;53376;51.114;14.738;2022-10-26T09:36:11;98790.88;;;14.52;67.86
46476;BME280;53376;51.114;14.738;2022-10-26T09:49:32;98800.81;;;14.76;66.80
46476;BME280;53376;51.114;14.738;2022-10-26T09:52:23;98808.66;;;14.79;66.49
46476;BME280;53376;51.114;14.738;2022-10-26T09:54:49;98817.41;;;14.81;66.20
46476;BME280;53376;51.114;14.738;2022-10-26T09:57:23;98814.72;;;14.81;66.00
46476;BME280;53376;51.114;14.738;2022-10-26T10:00:03;98820.06;;;14.81;66.24
46476;BME280;53376;51.114;14.738;2022-10-26T10:02:35;98820.84;;;14.83;66.12
46476;BME280;53376;51.114;14.738;2022-10-26T10:16:19;98807.84;;;15.27;66.22
46476;BME280;53376;51.114;14.738;2022-10-26T10:19:00;98811.66;;;15.36;65.75
46476;BME280;53376;51.114;14.738;2022-10-26T10:21:34;98815.84;;;15.40;65.75
46476;BME280;53376;51.114;14.738;2022-10-26T10:24:23;98814.66;;;15.44;65.38
46476;BME280;53376;51.114;14.738;2022-10-26T10:27:02;98814.44;;;15.47;65.32
46476;BME280;53376;51.114;14.738;2022-10-26T10:29:44;98811.28;;;15.53;65.59
46476;BME280;53376;51.114;14.738;2022-10-26T10:32:17;98805.47;;;15.59;65.37
46476;BME280;53376;51.114;14.738;2022-10-26T10:45:30;98803.25;;;16.13;65.05
46476;BME280;53376;51.114;14.738;2022-10-26T10:48:17;98806.91;;;16.23;64.85
46476;BME280;53376;51.114;14.738;2022-10-26T10:50:53;98801.81;;;16.32;64.51
46476;BME280;53376;51.114;14.738;2022-10-26T10:53:42;98802.16;;;16.38;64.19
46476;BME280;53376;51.114;14.738;2022-10-26T10:56:29;98800.09;;;16.42;64.19
46476;BME280;53376;51.114;14.738;2022-10-26T11:09:46;98797.91;;;16.81;62.91
46476;BME280;53376;51.114;14.738;2022-10-26T11:12:32;98795.50;;;16.89;62.53
46476;BME280;53376;51.114;14.738;2022-10-26T11:15:32;98793.03;;;16.98;62.45
46476;BME280;53376;51.114;14.738;2022-10-26T11:18:16;98795.38;;;17.02;62.34
46476;BME280;53376;51.114;14.738;2022-10-26T11:20:57;98791.56;;;17.05;61.85
46476;BME280;53376;51.114;14.738;2022-10-26T11:37:44;98791.09;;;17.00;61.73
46476;BME280;53376;51.114;14.738;2022-10-26T11:40:35;98787.06;;;16.94;61.45
46476;BME280;53376;51.114;14.738;2022-10-26T11:43:26;98785.50;;;16.91;61.32
46476;BME280;53376;51.114;14.738;2022-10-26T11:46:07;98785.72;;;16.88;61.41
46476;BME280;53376;51.114;14.738;2022-10-26T11:49:03;98784.75;;;16.89;61.23
46476;BME280;53376;51.114;14.738;2022-10-26T11:51:43;98788.16;;;16.91;61.54
46476;BME280;53376;51.114;14.738;2022-10-26T12:05:04;98783.88;;;17.00;61.42
46476;BME280;53376;51.114;14.738;2022-10-26T12:07:49;98787.44;;;17.01;61.28
46476;BME280;53376;51.114;14.738;2022-10-26T12:10:29;98787.44;;;17.01;61.07
46476;BME280;53376;51.114;14.738;2022-10-26T12:13:22;98788.28;;;17.01;61.23
46476;BME280;53376;51.114;14.738;2022-10-26T12:16:05;98782.81;;;17.03;61.32
46476;BME280;53376;51.114;14.738;2022-10-26T12:32:49;98778.03;;;17.18;60.58
46476;BME280;53376;51.114;14.738;2022-10-26T12:35:33;98785.94;;;17.19;60.52
46476;BME280;53376;51.114;14.738;2022-10-26T12:38:56;98780.31;;;17.22;60.69
46476;BME280;53376;51.114;14.738;2022-10-26T12:41:29;98785.66;;;17.22;60.49
46476;BME280;53376;51.114;14.738;2022-10-26T12:58:23;98782.63;;;17.27;59.98
46476;BME280;53376;51.114;14.738;2022-10-26T13:01:46;98787.16;;;17.27;59.99
46476;BME280;53376;51.114;14.738;2022-10-26T13:04:50;98774.44;;;17.29;59.95
46476;BME280;53376;51.114;14.738;2022-10-26T13:07:42;98778.72;;;17.31;59.78
46476;BME280;53376;51.114;14.738;2022-10-26T13:10:25;98774.94;;;17.34;59.74
46476;BME280;53376;51.114;14.738;2022-10-26T13:13:01;98775.63;;;17.36;60.06
46476;BME280;53376;51.114;14.738;2022-10-26T13:26:06;98766.50;;;17.60;59.74
46476;BME280;53376;51.114;14.738;2022-10-26T13:28:50;98766.38;;;17.61;59.67
46476;BME280;53376;51.114;14.738;2022-10-26T13:31:54;98770.38;;;17.67;59.22
46476;BME280;53376;51.114;14.738;2022-10-26T13:34:34;98769.75;;;17.75;59.30
46476;BME280;53376;51.114;14.738;2022-10-26T13:37:20;98771.19;;;17.79;59.11
46476;BME280;53376;51.114;14.738;2022-10-26T13:50:45;98774.56;;;18.13;58.27
46476;BME280;53376;51.114;14.738;2022-10-26T13:53:36;98782.28;;;18.28;57.65
46476;BME280;53376;51.114;14.738;2022-10-26T13:56:23;98777.81;;;18.38;57.46
46476;BME280;53376;51.114;14.738;2022-10-26T13:59:10;98776.84;;;18.39;57.58
46476;BME280;53376;51.114;14.738;2022-10-26T14:01:44;98786.59;;;18.40;57.36
46476;BME280;53376;51.114;14.738;2022-10-26T14:04:26;98785.22;;;18.46;57.07
46476;BME280;53376;51.114;14.738;2022-10-26T14:06:55;98782.13;;;18.50;56.82
46476;BME280;53376;51.114;14.738;2022-10-26T14:16:50;98805.72;;;18.68;56.64
46476;BME280;53376;51.114;14.738;2022-10-26T14:19:35;98807.44;;;18.69;56.26
46476;BME280;53376;51.114;14.738;2022-10-26T14:22:21;98805.47;;;18.71;56.84
46476;BME280;53376;51.114;14.738;2022-10-26T14:24:57;98809.13;;;18.70;56.34
46476;BME280;53376;51.114;14.738;2022-10-26T14:27:40;98800.78;;;18.73;56.54
46476;BME280;53376;51.114;14.738;2022-10-26T14:30:21;98797.09;;;19.05;56.14
46476;BME280;53376;51.114;14.738;2022-10-26T14:43:36;98797.28;;;21.34;49.64
46476;BME280;53376;51.114;14.738;2022-10-26T14:46:18;98798.28;;;21.61;49.08
46476;BME280;53376;51.114;14.738;2022-10-26T14:48:54;98791.50;;;21.57;49.13
46476;BME280;53376;51.114;14.738;2022-10-26T14:51:37;98798.84;;;21.55;49.14
46476;BME280;53376;51.114;14.738;2022-10-26T14:54:03;98809.31;;;21.68;49.30
46476;BME280;53376;51.114;14.738;2022-10-26T14:56:44;98809.00;;;21.89;48.50
46476;BME280;53376;51.114;14.738;2022-10-26T15:12:52;98801.34;;;19.88;52.39
46476;BME280;53376;51.114;14.738;2022-10-26T15:15:32;98805.41;;;19.53;53.01
46476;BME280;53376;51.114;14.738;2022-10-26T15:18:20;98804.50;;;19.23;53.56
46476;BME280;53376;51.114;14.738;2022-10-26T15:21:02;98820.31;;;18.96;54.21
46476;BME280;53376;51.114;14.738;2022-10-26T15:23:48;98822.31;;;18.73;54.97
46476;BME280;53376;51.114;14.738;2022-10-26T15:26:29;98838.50;;;18.52;55.58
46476;BME280;53376;51.114;14.738;2022-10-26T15:39:12;98837.00;;;17.84;57.29
46476;BME280;53376;51.114;14.738;2022-10-26T15:41:58;98833.38;;;17.74;57.41
46476;BME280;53376;51.114;14.738;2022-10-26T15:44:37;98834.16;;;17.65;57.64
46476;BME280;53376;51.114;14.738;2022-10-26T15:47:04;98825.03;;;17.56;57.63
46476;BME280;53376;51.114;14.738;2022-10-26T15:49:40;98830.19;;;17.48;57.98
46476;BME280;53376;51.114;14.738;2022-10-26T15:52:20;98833.38;;;17.42;58.18
46476;BME280;53376;51.114;14.738;2022-10-26T16:05:04;98859.91;;;17.12;58.87
46476;BME280;53376;51.114;14.738;2022-10-26T16:07:46;98860.28;;;17.07;59.02
46476;BME280;53376;51.114;14.738;2022-10-26T16:10:26;98862.63;;;17.01;59.08
46476;BME280;53376;51.114;14.738;2022-10-26T16:12:54;98855.78;;;16.97;58.99
46476;BME280;53376;51.114;14.738;2022-10-26T16:15:36;98864.22;;;16.92;59.27
46476;BME280;53376;51.114;14.738;2022-10-26T16:18:03;98868.06;;;16.88;59.42
46476;BME280;53376;51.114;14.738;2022-10-26T16:31:21;98871.34;;;16.69;59.53
46476;BME280;53376;51.114;14.738;2022-10-26T16:34:00;98871.59;;;16.66;59.62
46476;BME280;53376;51.114;14.738;2022-10-26T16:36:30;98862.06;;;16.62;59.95
46476;BME280;53376;51.114;14.738;2022-10-26T16:39:11;98866.81;;;16.58;59.87
46476;BME280;53376;51.114;14.738;2022-10-26T16:41:38;98870.59;;;16.55;59.68
46476;BME280;53376;51.114;14.738;2022-10-26T16:44:17;98876.09;;;16.54;59.81
46476;BME280;53376;51.114;14.738;2022-10-26T16:46:46;98885.25;;;16.51;59.85
46476;BME280;53376;51.114;14.738;2022-10-26T16:59:55;98874.50;;;16.40;60.33
46476;BME280;53376;51.114;14.738;2022-10-26T17:02:47;98891.91;;;16.34;60.41
46476;BME280;53376;51.114;14.738;2022-10-26T17:05:14;98883.09;;;16.32;60.76
46476;BME280;53376;51.114;14.738;2022-10-26T17:07:54;98889.34;;;16.33;60.63
46476;BME280;53376;51.114;14.738;2022-10-26T17:10:21;98889.47;;;16.31;60.62
46476;BME280;53376;51.114;14.738;2022-10-26T17:13:00;98896.88;;;16.27;60.42
46476;BME280;53376;51.114;14.738;2022-10-26T17:25:43;98901.84;;;16.21;60.63
46476;BME280;53376;51.114;14.738;2022-10-26T17:28:23;98916.34;;;16.18;60.74
46476;BME280;53376;51.114;14.738;2022-10-26T17:31:05;98910.25;;;16.16;60.74
46476;BME280;53376;51.114;14.738;2022-10-26T17:33:33;98917.56;;;16.14;60.91
46476;BME280;53376;51.114;14.738;2022-10-26T17:36:13;98924.72;;;16.14;61.17
46476;BME280;53376;51.114;14.738;2022-10-26T17:52:22;98946.75;;;16.06;61.53
46476;BME280;53376;51.114;14.738;2022-10-26T17:55:03;98951.28;;;16.05;61.73
46476;BME280;53376;51.114;14.738;2022-10-26T17:57:31;98954.81;;;16.06;61.74
46476;BME280;53376;51.114;14.738;2022-10-26T18:00:13;98959.44;;;16.04;61.57
46476;BME280;53376;51.114;14.738;2022-10-26T18:02:40;98952.38;;;16.03;62.01
46476;BME280;53376;51.114;14.738;2022-10-26T18:05:23;98962.13;;;16.04;61.90
46476;BME280;53376;51.114;14.738;2022-10-26T18:07:51;98966.72;;;16.02;61.94
46476;BME280;53376;51.114;14.738;2022-10-26T18:17:35;98956.22;;;15.99;62.06
46476;BME280;53376;51.114;14.738;2022-10-26T18:20:14;98955.50;;;15.97;62.09
46476;BME280;53376;51.114;14.738;2022-10-26T18:22:56;98961.56;;;15.99;62.05
46476;BME280;53376;51.114;14.738;2022-10-26T18:25:23;98964.38;;;15.97;62.31
46476;BME280;53376;51.114;14.738;2022-10-26T18:28:03;98963.53;;;15.97;62.09
46476;BME280;53376;51.114;14.738;2022-10-26T18:30:30;98961.81;;;15.95;62.04
46476;BME280;53376;51.114;14.738;2022-10-26T18:33:03;98965.34;;;15.96;62.17
46476;BME280;53376;51.114;14.738;2022-10-26T18:46:24;98986.91;;;15.94;62.45
46476;BME280;53376;51.114;14.738;2022-10-26T18:49:05;98993.13;;;15.95;62.49
46476;BME280;53376;51.114;14.738;2022-10-26T18:51:33;98990.56;;;15.93;62.49
46476;BME280;53376;51.114;14.738;2022-10-26T18:54:13;98998.59;;;15.93;62.61
46476;BME280;53376;51.114;14.738;2022-10-26T18:56:40;98996.88;;;15.92;62.49
46476;BME280;53376;51.114;14.738;2022-10-26T19:13:16;99011.72;;;15.85;62.85
46476;BME280;53376;51.114;14.738;2022-10-26T19:15:59;99025.13;;;15.85;62.97
46476;BME280;53376;51.114;14.738;2022-10-26T19:18:59;99014.41;;;15.85;62.83
46476;BME280;53376;51.114;14.738;2022-10-26T19:21:27;99025.13;;;15.85;62.75
46476;BME280;53376;51.114;14.738;2022-10-26T19:24:13;99030.47;;;15.85;62.69
46476;BME280;53376;51.114;14.738;2022-10-26T19:26:47;99041.19;;;15.85;62.92
46476;BME280;53376;51.114;14.738;2022-10-26T19:39:59;99066.03;;;15.87;62.92
46476;BME280;53376;51.114;14.738;2022-10-26T19:42:38;99064.31;;;15.86;62.91
46476;BME280;53376;51.114;14.738;2022-10-26T19:45:06;99073.34;;;15.85;62.78
46476;BME280;53376;51.114;14.738;2022-10-26T19:47:46;99069.81;;;15.85;62.87
46476;BME280;53376;51.114;14.738;2022-10-26T19:50:14;99077.97;;;15.83;63.15
46476;BME280;53376;51.114;14.738;2022-10-26T19:52:53;99070.88;;;15.82;62.89
46476;BME280;53376;51.114;14.738;2022-10-26T20:05:38;99086.16;;;15.80;63.08
46476;BME280;53376;51.114;14.738;2022-10-26T20:08:18;99096.16;;;15.78;63.01
46476;BME280;53376;51.114;14.738;2022-10-26T20:11:08;99089.94;;;15.77;63.27
46476;BME280;53376;51.114;14.738;2022-10-26T20:13:48;99098.84;;;15.78;63.10
46476;BME280;53376;51.114;14.738;2022-10-26T20:16:27;99098.84;;;15.78;63.04
46476;BME280;53376;51.114;14.738;2022-10-26T20:32:35;99096.25;;;15.76;63.29
46476;BME280;53376;51.114;14.738;2022-10-26T20:35:14;99105.16;;;15.77;63.22
46476;BME280;53376;51.114;14.738;2022-10-26T20:37:42;99100.75;;;15.76;63.31
46476;BME280;53376;51.114;14.738;2022-10-26T20:40:23;99099.91;;;15.75;63.10
46476;BME280;53376;51.114;14.738;2022-10-26T20:42:51;99099.91;;;15.75;63.23
46476;BME280;53376;51.114;14.738;2022-10-26T20:45:32;99100.88;;;15.74;63.36
46476;BME280;53376;51.114;14.738;2022-10-26T20:48:10;99107.09;;;15.75;63.19
46476;BME280;53376;51.114;14.738;2022-10-26T20:58:10;99112.69;;;15.72;63.33
46476;BME280;53376;51.114;14.738;2022-10-26T21:00:58;99098.63;;;15.68;63.21
46476;BME280;53376;51.114;14.738;2022-10-26T21:03:40;99104.97;;;15.67;63.68
46476;BME280;53376;51.114;14.738;2022-10-26T21:06:09;99104.84;;;15.69;63.83
46476;BME280;53376;51.114;14.738;2022-10-26T21:08:51;99109.34;;;15.68;63.88
46476;BME280;53376;51.114;14.738;2022-10-26T21:11:19;99104.84;;;15.69;63.68
46476;BME280;53376;51.114;14.738;2022-10-26T21:24:50;99119.97;;;15.70;63.90
46476;BME280;53376;51.114;14.738;2022-10-26T21:27:29;99121.78;;;15.69;63.88
46476;BME280;53376;51.114;14.738;2022-10-26T21:29:56;99128.00;;;15.70;63.96
46476;BME280;53376;51.114;14.738;2022-10-26T21:32:29;99119.00;;;15.71;64.09
46476;BME280;53376;51.114;14.738;2022-10-26T21:35:09;99129.72;;;15.71;63.92
46476;BME280;53376;51.114;14.738;2022-10-26T21:37:36;99128.75;;;15.72;64.04
46476;BME280;53376;51.114;14.738;2022-10-26T21:53:51;99138.91;;;15.67;64.08
46476;BME280;53376;51.114;14.738;2022-10-26T21:56:30;99146.00;;;15.68;64.28
46476;BME280;53376;51.114;14.738;2022-10-26T21:58:57;99143.31;;;15.68;64.26
46476;BME280;53376;51.114;14.738;2022-10-26T22:01:37;99144.28;;;15.67;64.46
46476;BME280;53376;51.114;14.738;2022-10-26T22:04:04;99150.50;;;15.67;64.32
46476;BME280;53376;51.114;14.738;2022-10-26T22:06:37;99146.00;;;15.68;64.39
46476;BME280;53376;51.114;14.738;2022-10-26T22:19:49;99148.78;;;15.66;64.62
46476;BME280;53376;51.114;14.738;2022-10-26T22:22:28;99142.59;;;15.66;64.64
46476;BME280;53376;51.114;14.738;2022-10-26T22:24:55;99144.28;;;15.67;64.65
46476;BME280;53376;51.114;14.738;2022-10-26T22:27:28;99145.25;;;15.66;64.75
46476;BME280;53376;51.114;14.738;2022-10-26T22:30:10;99147.94;;;15.66;64.87
46476;BME280;53376;51.114;14.738;2022-10-26T22:32:37;99147.94;;;15.66;64.60
46476;BME280;53376;51.114;14.738;2022-10-26T22:45:57;99151.56;;;15.64;64.95
46476;BME280;53376;51.114;14.738;2022-10-26T22:48:38;99150.69;;;15.64;65.18
46476;BME280;53376;51.114;14.738;2022-10-26T22:51:07;99158.66;;;15.66;64.99
46476;BME280;53376;51.114;14.738;2022-10-26T22:53:50;99152.41;;;15.65;65.12
46476;BME280;53376;51.114;14.738;2022-10-26T22:56:18;99155.09;;;15.65;64.87
46476;BME280;53376;51.114;14.738;2022-10-26T22:59:19;99157.06;;;15.63;65.09
46476;BME280;53376;51.114;14.738;2022-10-26T23:01:47;99158.84;;;15.62;65.10
46476;BME280;53376;51.114;14.738;2022-10-26T23:11:52;99162.50;;;15.61;65.09
46476;BME280;53376;51.114;14.738;2022-10-26T23:14:32;99158.00;;;15.62;65.00
46476;BME280;53376;51.114;14.738;2022-10-26T23:17:15;99168.72;;;15.62;64.92
46476;BME280;53376;51.114;14.738;2022-10-26T23:19:42;99168.81;;;15.60;64.97
46476;BME280;53376;51.114;14.738;2022-10-26T23:22:21;99168.06;;;15.58;65.07
46476;BME280;53376;51.114;14.738;2022-10-26T23:24:48;99167.19;;;15.58;65.16
46476;BME280;53376;51.114;14.738;2022-10-26T23:27:21;99175.34;;;15.56;65.23